WTTO2: Illinois River, Watts, OK

                                SHEF ID:       WTTO2     Illinois River near Watts, OK
STATION TYPE: Stream Gauge
Regulating: Stage = 13.00, Flow = 11165

PRECIP STAGE STAGE(2) RIV-FLOW WTR-TEMP VOLTAGE BAT-LOAD
in ft ft cfs F volt volt
Ccp-Rev Ccp-Rev Ccp-Rev Ccp-Rev Ccp-Rev Ccp-Rev Ccp-Rev
(America/Chicago)
05/02 00:00 0.00 4.27 ---- 1070 64.09 ---- 12.82
05/02 01:00 0.00 4.25 ---- 1060 63.86 ---- 12.77
05/02 02:00 0.00 4.25 ---- 1060 63.61 ---- 12.73
05/02 03:00 0.00 4.24 ---- 1055 63.36 ---- 12.70
05/02 04:00 0.00 4.22 ---- 1045 63.05 ---- 12.67
05/02 05:00 0.00 4.21 ---- 1040 62.80 ---- 12.64
05/02 06:00 0.00 4.20 ---- 1035 62.49 ---- 12.61
05/02 07:00 0.00 4.18 ---- 1025 62.22 ---- 12.59
05/02 08:00 0.00 4.19 ---- 1030 62.06 ---- 12.96
05/02 09:00 0.00 4.18 ---- 1025 61.99 ---- 13.57
05/02 10:00 0.00 4.15 ---- 1011 61.99 ---- 13.60
05/02 11:00 0.00 4.12 ---- 996 62.13 ---- 13.65
05/02 12:00 0.00 4.08 ---- 977 62.42 ---- 13.67
05/02 13:00 0.00 4.08 ---- 977 62.82 ---- 13.65
05/02 14:00 0.00 4.02 ---- 949 63.28 ---- 13.65
05/02 15:00 0.00 4.02 ---- 949 63.82 ---- 13.55
05/02 16:00 0.00 4.04 ---- 958 64.35 ---- 13.39
05/02 17:00 0.00 4.03 ---- 954 64.80 ---- 13.37
05/02 18:00 0.00 4.01 ---- 944 65.07 ---- 13.33
05/02 19:00 0.00 4.00 ---- 940 65.28 ---- 13.30
05/02 20:00 0.00 3.99 ---- 934 65.41 ---- 13.26
05/02 21:00 0.00 3.97 ---- 923 65.35 ---- 13.09
05/02 22:00 0.00 3.96 ---- 917 65.28 ---- 12.96
05/02 23:00 0.00 3.96 ---- 917 65.23 ---- 12.87
Data processed at Sun 03May2026 04:35 GMT

NOTICE: If you are parsing this page

Please convert to using our Data API. Starting early 2026 we will be migrating to: https://water.usace.army.mil with modern pages rendered in JavaScript. When this migration completes you will no longer be able to scrape this page! CWMSDataAPI (CDA)

Timeseries IDs (TSIDs)

TSIDs used from left to right in the data table
WATT.Precip-Inc.Total.1Hour.1Hour.Ccp-Rev
WATT.Stage.Inst.1Hour.0.Ccp-Rev
WATT.Stage-Alt.Inst.1Hour.0.Ccp-Rev
WATT.Flow.Inst.1Hour.0.Ccp-Rev
WATT.Temp-Water.Inst.1Hour.0.Ccp-Rev
WATT.Volt-Battery.Inst.1Hour.0.Ccp-Rev
WATT.Volt-Battery Load.Inst.1Hour.0.Ccp-Rev

                            

All information presented herein is the property of the government of the United States of America and may be revised or deleted at any time without prior notice. Dissemination of this information without the expressed written consent of the Public Affairs Office, Tulsa District U.S. Army Corps of Engineers is strictly prohibited. These data are gathered electronically and, as presented, have NOT undergone any form of quality control. These data are NOT guaranteed to be valid or correct.